Pefferlaw, Canada
Current Conditions -  °F | °C
As of 5:00 AM on Wednesday 26 Nov 2014 (Local Time) from CYKZ Reporting Station
Overcast Overcast  
Wind Chill: 32°   Ceiling: 3000
Heat Index: 32°   Visibility: 15mi
Dew Point: 27°   Wind: 0mph
Humidity: 80%   Direction: NA
Pressure: 30.19"   Gusts: NA
Location:  44.32°N, 79.2°W
Report Text: CYKZ 261000Z 00000KT 15SM OVC030 00/M03 A3019 RMK SC8 SLP233
Loading
Personal Weather Stations






























Interactive Weather Map New forecast layout! Learn more

10-Day Weather Forecast

Advertisements
Track Severe Weather on mobile